TUI17M EDDV-LEPA
Flight info
| Callsign | TUI17M |
|---|---|
| Flight time | N/A |
| Altitude | 37000 |
| Route | NORTA1G/09R NORTA P605 WERRA DCT LAMOP DCT SWALM DCT SOGMI/N0458F380 DCT BOMBI DCT GIGET DCT ABUKA DCT KRH DCT NATOR/N0460F370 DCT LUTIX DCT BENOT DCT NEMOS DCT GEVEA DCT INCUS DCT BALSI DCT RETNO DCT TUPOX DCT MTG DCT DIVKO DCT VATIR DCT PIVUS DCT BODEQ DCT VERSO DCT LUNIK |
| Aircraft | B38M/M-SDE1FGHILORVWXY/HB1 |
Departure
| Time | 2026-05-06 10:45 |
|---|---|
| Airport | Hannover Airport (EDDV) |
Arrival
| Time | N/A |
|---|---|
| Airport | Palma de Mallorca Airport (LEPA) |
| Time | Latitude | Longitude | Altitude | Speed | Heading |
|---|---|---|---|---|---|
| 2026-05-06 10:20 | 52.45834 | 9.69458 | 181 ft | 0 kts | 22° |
| 2026-05-06 10:29 | 52.45833 | 9.69458 | 181 ft | 0 kts | 22° |
| 2026-05-06 10:35 | 52.45815 | 9.69447 | 181 ft | 4 kts | 18° |
| 2026-05-06 10:35 | 52.45789 | 9.69436 | 181 ft | 4 kts | 6° |
| 2026-05-06 10:35 | 52.45763 | 9.69437 | 181 ft | 4 kts | 340° |
| 2026-05-06 10:36 | 52.45745 | 9.69456 | 181 ft | 4 kts | 321° |
| 2026-05-06 10:36 | 52.45723 | 9.69479 | 181 ft | 4 kts | 332° |
| 2026-05-06 10:36 | 52.45718 | 9.69484 | 181 ft | 0 kts | 332° |
| 2026-05-06 10:40 | 52.45720 | 9.69482 | 181 ft | 1 kts | 330° |
| 2026-05-06 10:40 | 52.45733 | 9.69467 | 174 ft | 3 kts | 321° |
| 2026-05-06 10:41 | 52.45750 | 9.69428 | 181 ft | 5 kts | 290° |
| 2026-05-06 10:41 | 52.45757 | 9.69360 | 181 ft | 7 kts | 276° |
| 2026-05-06 10:41 | 52.45760 | 9.69269 | 181 ft | 9 kts | 273° |
| 2026-05-06 10:41 | 52.45744 | 9.69177 | 181 ft | 9 kts | 222° |
| 2026-05-06 10:42 | 52.45678 | 9.69147 | 181 ft | 11 kts | 184° |
| 2026-05-06 10:42 | 52.45624 | 9.69078 | 181 ft | 11 kts | 264° |
| 2026-05-06 10:42 | 52.45631 | 9.68959 | 181 ft | 10 kts | 264° |
| 2026-05-06 10:42 | 52.45630 | 9.68828 | 181 ft | 14 kts | 272° |
| 2026-05-06 10:43 | 52.45636 | 9.68615 | 181 ft | 24 kts | 271° |
| 2026-05-06 10:43 | 52.45643 | 9.68308 | 181 ft | 28 kts | 272° |
| 2026-05-06 10:43 | 52.45652 | 9.67986 | 181 ft | 29 kts | 273° |
| 2026-05-06 10:44 | 52.45577 | 9.67700 | 182 ft | 9 kts | 184° |
| 2026-05-06 10:44 | 52.45523 | 9.67696 | 184 ft | 7 kts | 183° |
| 2026-05-06 10:44 | 52.45494 | 9.67735 | 185 ft | 7 kts | 89° |
| 2026-05-06 10:44 | 52.45490 | 9.67951 | 185 ft | 52 kts | 92° |
| 2026-05-06 10:45 | 52.45462 | 9.69000 | 187 ft | 129 kts | 93° |
| 2026-05-06 10:45 | 52.45413 | 9.70799 | 332 ft | 177 kts | 94° |
| 2026-05-06 10:45 | 52.45347 | 9.72831 | 1306 ft | 177 kts | 94° |
| 2026-05-06 10:45 | 52.45261 | 9.74883 | 2207 ft | 186 kts | 92° |
| 2026-05-06 10:46 | 52.45204 | 9.77084 | 2873 ft | 194 kts | 92° |
| 2026-05-06 10:46 | 52.45153 | 9.79312 | 3683 ft | 199 kts | 93° |
| 2026-05-06 10:46 | 52.45093 | 9.81633 | 4435 ft | 207 kts | 92° |
| 2026-05-06 10:46 | 52.45029 | 9.84017 | 5182 ft | 212 kts | 93° |
| 2026-05-06 10:47 | 52.44960 | 9.86447 | 6080 ft | 213 kts | 94° |
| 2026-05-06 10:47 | 52.44690 | 9.88810 | 6924 ft | 216 kts | 111° |
| 2026-05-06 10:47 | 52.43912 | 9.90941 | 7650 ft | 222 kts | 135° |
| 2026-05-06 10:47 | 52.42643 | 9.92324 | 8561 ft | 221 kts | 160° |
| 2026-05-06 10:48 | 52.41117 | 9.92719 | 9357 ft | 227 kts | 183° |
| 2026-05-06 10:48 | 52.39508 | 9.92324 | 9916 ft | 243 kts | 189° |
| 2026-05-06 10:48 | 52.37802 | 9.91842 | 10487 ft | 254 kts | 189° |
| 2026-05-06 10:48 | 52.35995 | 9.91345 | 10916 ft | 274 kts | 189° |
| 2026-05-06 10:49 | 52.34045 | 9.90817 | 11288 ft | 294 kts | 190° |
| 2026-05-06 10:49 | 52.31958 | 9.90255 | 11649 ft | 313 kts | 190° |
| 2026-05-06 10:49 | 52.29762 | 9.89666 | 12118 ft | 327 kts | 190° |
| 2026-05-06 10:49 | 52.27481 | 9.89056 | 12679 ft | 337 kts | 190° |
| 2026-05-06 10:50 | 52.25181 | 9.88463 | 13429 ft | 341 kts | 188° |
| 2026-05-06 10:50 | 52.22812 | 9.88009 | 14141 ft | 344 kts | 188° |
| 2026-05-06 10:50 | 52.20415 | 9.87548 | 14829 ft | 349 kts | 188° |
| 2026-05-06 10:50 | 52.17994 | 9.87075 | 15514 ft | 353 kts | 188° |
| 2026-05-06 10:51 | 52.15541 | 9.86593 | 16206 ft | 357 kts | 188° |
| 2026-05-06 10:51 | 52.13062 | 9.86104 | 16855 ft | 361 kts | 188° |
| 2026-05-06 10:51 | 52.10549 | 9.85609 | 17498 ft | 365 kts | 189° |
| 2026-05-06 10:51 | 52.08016 | 9.85111 | 18183 ft | 369 kts | 188° |
| 2026-05-06 10:52 | 52.05453 | 9.84608 | 18738 ft | 372 kts | 188° |
| 2026-05-06 10:52 | 52.02869 | 9.84101 | 19333 ft | 375 kts | 188° |
| 2026-05-06 10:52 | 52.00271 | 9.83592 | 19926 ft | 377 kts | 188° |
| 2026-05-06 10:52 | 51.97651 | 9.83080 | 20503 ft | 381 kts | 188° |
| 2026-05-06 10:53 | 51.95011 | 9.82563 | 21056 ft | 383 kts | 188° |
| 2026-05-06 10:53 | 51.92351 | 9.82044 | 21607 ft | 386 kts | 188° |
| 2026-05-06 10:53 | 51.89671 | 9.81521 | 22143 ft | 389 kts | 188° |
| 2026-05-06 10:53 | 51.86965 | 9.80995 | 22686 ft | 392 kts | 188° |
| 2026-05-06 10:54 | 51.84260 | 9.80478 | 23312 ft | 392 kts | 188° |
| 2026-05-06 10:54 | 51.81538 | 9.79959 | 23774 ft | 395 kts | 188° |
| 2026-05-06 10:54 | 51.78829 | 9.79441 | 24184 ft | 398 kts | 188° |
| 2026-05-06 10:54 | 51.76064 | 9.78913 | 24601 ft | 401 kts | 187° |
| 2026-05-06 10:55 | 51.73286 | 9.78384 | 25016 ft | 404 kts | 187° |
| 2026-05-06 10:55 | 51.70483 | 9.77851 | 25420 ft | 407 kts | 187° |
| 2026-05-06 10:55 | 51.67664 | 9.77315 | 25817 ft | 409 kts | 187° |
| 2026-05-06 10:55 | 51.64821 | 9.76776 | 26215 ft | 412 kts | 187° |
| 2026-05-06 10:56 | 51.61959 | 9.76232 | 26648 ft | 414 kts | 188° |
| 2026-05-06 10:56 | 51.59098 | 9.75691 | 27117 ft | 416 kts | 188° |
| 2026-05-06 10:56 | 51.56209 | 9.75145 | 27471 ft | 419 kts | 188° |
| 2026-05-06 10:56 | 51.53299 | 9.74596 | 27854 ft | 422 kts | 188° |
| 2026-05-06 10:57 | 51.50378 | 9.74046 | 28215 ft | 424 kts | 188° |
| 2026-05-06 10:57 | 51.47440 | 9.73442 | 28566 ft | 426 kts | 192° |
| 2026-05-06 10:57 | 51.44615 | 9.72001 | 28930 ft | 427 kts | 201° |
| 2026-05-06 10:57 | 51.41797 | 9.70446 | 29214 ft | 431 kts | 199° |
| 2026-05-06 10:58 | 51.38950 | 9.68893 | 29624 ft | 431 kts | 201° |
| 2026-05-06 10:58 | 51.36130 | 9.67333 | 30132 ft | 429 kts | 201° |
| 2026-05-06 10:58 | 51.33297 | 9.65760 | 30358 ft | 432 kts | 201° |
| 2026-05-06 10:58 | 51.30454 | 9.64181 | 30683 ft | 433 kts | 201° |
| 2026-05-06 10:59 | 51.27605 | 9.62599 | 31064 ft | 433 kts | 201° |
| 2026-05-06 10:59 | 51.24761 | 9.61023 | 31438 ft | 432 kts | 200° |
| 2026-05-06 10:59 | 51.21924 | 9.59451 | 31811 ft | 432 kts | 200° |
| 2026-05-06 10:59 | 51.19083 | 9.57881 | 32179 ft | 432 kts | 200° |
| 2026-05-06 11:00 | 51.16249 | 9.56313 | 32578 ft | 430 kts | 201° |
| 2026-05-06 11:00 | 51.13464 | 9.54778 | 33039 ft | 427 kts | 200° |
| 2026-05-06 11:00 | 51.10657 | 9.53233 | 33388 ft | 428 kts | 200° |
| 2026-05-06 11:00 | 51.07836 | 9.51681 | 33704 ft | 428 kts | 200° |
| 2026-05-06 11:01 | 51.05019 | 9.50133 | 33989 ft | 428 kts | 200° |
| 2026-05-06 11:01 | 51.02204 | 9.48587 | 34260 ft | 428 kts | 200° |
| 2026-05-06 11:01 | 50.99399 | 9.47018 | 34529 ft | 428 kts | 204° |
| 2026-05-06 11:01 | 50.96801 | 9.44729 | 34787 ft | 427 kts | 213° |
| 2026-05-06 11:02 | 50.94258 | 9.42261 | 34973 ft | 429 kts | 211° |
| 2026-05-06 11:02 | 50.91702 | 9.39826 | 35301 ft | 428 kts | 212° |
| 2026-05-06 11:02 | 50.89155 | 9.37376 | 35564 ft | 428 kts | 212° |
| 2026-05-06 11:02 | 50.86614 | 9.34921 | 35817 ft | 428 kts | 212° |
| 2026-05-06 11:03 | 50.84069 | 9.32460 | 36064 ft | 429 kts | 212° |
| 2026-05-06 11:03 | 50.81525 | 9.30001 | 36301 ft | 429 kts | 212° |
| 2026-05-06 11:03 | 50.78979 | 9.27542 | 36536 ft | 429 kts | 212° |
| 2026-05-06 11:03 | 50.76434 | 9.25088 | 36735 ft | 430 kts | 212° |
| 2026-05-06 11:04 | 50.73875 | 9.22623 | 36780 ft | 431 kts | 212° |
| 2026-05-06 11:04 | 50.71438 | 9.19905 | 37022 ft | 428 kts | 224° |
| 2026-05-06 11:04 | 50.69379 | 9.16516 | 37282 ft | 428 kts | 224° |
| 2026-05-06 11:04 | 50.67265 | 9.13200 | 37453 ft | 429 kts | 225° |
| 2026-05-06 11:05 | 50.65159 | 9.09858 | 37654 ft | 429 kts | 225° |
| 2026-05-06 11:05 | 50.63094 | 9.06553 | 37773 ft | 429 kts | 225° |
| 2026-05-06 11:05 | 50.61003 | 9.03189 | 37758 ft | 429 kts | 225° |
| 2026-05-06 11:06 | 50.56841 | 8.96488 | 37767 ft | 428 kts | 225° |
| 2026-05-06 11:06 | 50.52207 | 8.90752 | 37734 ft | 426 kts | 202° |
| 2026-05-06 11:06 | 50.49354 | 8.89493 | 37771 ft | 428 kts | 191° |
| 2026-05-06 11:07 | 50.46405 | 8.88721 | 37738 ft | 431 kts | 191° |
| 2026-05-06 11:07 | 50.40468 | 8.87340 | 37761 ft | 431 kts | 190° |
| 2026-05-06 11:08 | 50.34528 | 8.86064 | 37757 ft | 431 kts | 189° |
| 2026-05-06 11:08 | 50.28638 | 8.84825 | 37752 ft | 431 kts | 189° |
| 2026-05-06 11:09 | 50.22671 | 8.83574 | 37764 ft | 433 kts | 189° |
| 2026-05-06 11:09 | 50.16699 | 8.82325 | 37769 ft | 433 kts | 189° |
| 2026-05-06 11:10 | 50.11736 | 8.81289 | 37779 ft | 433 kts | 189° |
| 2026-05-06 11:10 | 50.05766 | 8.80045 | 37758 ft | 431 kts | 190° |
| 2026-05-06 11:11 | 49.99831 | 8.78809 | 37777 ft | 431 kts | 189° |
| 2026-05-06 11:11 | 49.93927 | 8.77583 | 37772 ft | 430 kts | 190° |
| 2026-05-06 11:12 | 49.87997 | 8.76353 | 37773 ft | 431 kts | 189° |
| 2026-05-06 11:12 | 49.82072 | 8.75129 | 37774 ft | 428 kts | 189° |
| 2026-05-06 11:13 | 49.76179 | 8.73913 | 37776 ft | 427 kts | 189° |
| 2026-05-06 11:13 | 49.70285 | 8.72702 | 37785 ft | 427 kts | 189° |
| 2026-05-06 11:14 | 49.64424 | 8.71518 | 37791 ft | 427 kts | 189° |
| 2026-05-06 11:14 | 49.58524 | 8.70327 | 37797 ft | 428 kts | 189° |
| 2026-05-06 11:15 | 49.52616 | 8.69137 | 37802 ft | 427 kts | 189° |
| 2026-05-06 11:15 | 49.46714 | 8.67948 | 37801 ft | 427 kts | 189° |
| 2026-05-06 11:16 | 49.41470 | 8.66886 | 37787 ft | 428 kts | 189° |
| 2026-05-06 11:16 | 49.35546 | 8.65688 | 37804 ft | 431 kts | 189° |
| 2026-05-06 11:17 | 49.29639 | 8.64497 | 37797 ft | 430 kts | 189° |
| 2026-05-06 11:17 | 49.23697 | 8.63301 | 37797 ft | 430 kts | 189° |
| 2026-05-06 11:18 | 49.17753 | 8.62107 | 37778 ft | 431 kts | 190° |
| 2026-05-06 11:18 | 49.11797 | 8.60915 | 37795 ft | 433 kts | 190° |
| 2026-05-06 11:19 | 49.05819 | 8.59722 | 37794 ft | 433 kts | 190° |
| 2026-05-06 11:19 | 48.99849 | 8.58510 | 37793 ft | 432 kts | 193° |
| 2026-05-06 11:20 | 48.94032 | 8.56540 | 37794 ft | 432 kts | 194° |
| 2026-05-06 11:20 | 48.88159 | 8.54641 | 37800 ft | 432 kts | 194° |
| 2026-05-06 11:21 | 48.82276 | 8.52755 | 37803 ft | 432 kts | 194° |
| 2026-05-06 11:21 | 48.76398 | 8.50875 | 37799 ft | 432 kts | 194° |
| 2026-05-06 11:22 | 48.70541 | 8.49006 | 37798 ft | 429 kts | 194° |
| 2026-05-06 11:22 | 48.64703 | 8.47148 | 37807 ft | 429 kts | 194° |
| 2026-05-06 11:23 | 48.58862 | 8.45294 | 37809 ft | 429 kts | 194° |
| 2026-05-06 11:23 | 48.53023 | 8.43445 | 37810 ft | 429 kts | 194° |
| 2026-05-06 11:24 | 48.47181 | 8.41599 | 37812 ft | 429 kts | 194° |
| 2026-05-06 11:24 | 48.41341 | 8.39758 | 37810 ft | 429 kts | 194° |
| 2026-05-06 11:25 | 48.35491 | 8.37918 | 37812 ft | 429 kts | 194° |
| 2026-05-06 11:25 | 48.29668 | 8.36091 | 37809 ft | 426 kts | 194° |
| 2026-05-06 11:26 | 48.23900 | 8.34285 | 37813 ft | 426 kts | 194° |
| 2026-05-06 11:26 | 48.18116 | 8.32356 | 37806 ft | 424 kts | 202° |
| 2026-05-06 11:26 | 48.15513 | 8.30379 | 37826 ft | 419 kts | 213° |
| 2026-05-06 11:27 | 48.13022 | 8.28074 | 37799 ft | 422 kts | 212° |
| 2026-05-06 11:27 | 48.08049 | 8.23431 | 37821 ft | 421 kts | 213° |
| 2026-05-06 11:28 | 48.03113 | 8.18717 | 37816 ft | 421 kts | 213° |
| 2026-05-06 11:28 | 47.98182 | 8.13983 | 37852 ft | 422 kts | 213° |
| 2026-05-06 11:29 | 47.93251 | 8.09256 | 37846 ft | 421 kts | 213° |
| 2026-05-06 11:29 | 47.88334 | 8.04553 | 37816 ft | 418 kts | 213° |
| 2026-05-06 11:30 | 47.83415 | 7.99860 | 37820 ft | 420 kts | 213° |
| 2026-05-06 11:30 | 47.78500 | 7.95180 | 37862 ft | 420 kts | 213° |
| 2026-05-06 11:31 | 47.73581 | 7.90508 | 37844 ft | 419 kts | 213° |
| 2026-05-06 11:31 | 47.68657 | 7.85841 | 37844 ft | 420 kts | 213° |
| 2026-05-06 11:32 | 47.63735 | 7.81188 | 37848 ft | 419 kts | 213° |
| 2026-05-06 11:32 | 47.58844 | 7.76574 | 37854 ft | 420 kts | 213° |
| 2026-05-06 11:33 | 47.53916 | 7.71935 | 37848 ft | 419 kts | 213° |
| 2026-05-06 11:33 | 47.48987 | 7.67305 | 37856 ft | 419 kts | 213° |
| 2026-05-06 11:34 | 47.44054 | 7.62683 | 37854 ft | 420 kts | 213° |
| 2026-05-06 11:34 | 47.39121 | 7.58070 | 37854 ft | 419 kts | 213° |
| 2026-05-06 11:35 | 47.34189 | 7.53470 | 37822 ft | 419 kts | 213° |
| 2026-05-06 11:35 | 47.29262 | 7.48884 | 37890 ft | 419 kts | 213° |
| 2026-05-06 11:36 | 47.24333 | 7.44303 | 37873 ft | 419 kts | 213° |
| 2026-05-06 11:36 | 47.19389 | 7.39721 | 37897 ft | 421 kts | 213° |
| 2026-05-06 11:37 | 47.15074 | 7.34066 | 37898 ft | 418 kts | 230° |
| 2026-05-06 11:37 | 47.11372 | 7.27485 | 37881 ft | 422 kts | 230° |
| 2026-05-06 11:38 | 47.07714 | 7.20836 | 37881 ft | 421 kts | 230° |
| 2026-05-06 11:38 | 47.04046 | 7.14114 | 37848 ft | 421 kts | 231° |
| 2026-05-06 11:39 | 47.00406 | 7.07450 | 37884 ft | 421 kts | 230° |
| 2026-05-06 11:39 | 46.96741 | 7.00753 | 37879 ft | 421 kts | 230° |
| 2026-05-06 11:40 | 46.93079 | 6.94080 | 37887 ft | 421 kts | 230° |
| 2026-05-06 11:40 | 46.88980 | 6.88015 | 37920 ft | 420 kts | 219° |
| 2026-05-06 11:41 | 46.84440 | 6.82589 | 37870 ft | 421 kts | 219° |
| 2026-05-06 11:41 | 46.79888 | 6.77169 | 37881 ft | 422 kts | 219° |
| 2026-05-06 11:42 | 46.75339 | 6.71765 | 37884 ft | 420 kts | 219° |
| 2026-05-06 11:42 | 46.70849 | 6.66444 | 37892 ft | 418 kts | 219° |
| 2026-05-06 11:43 | 46.66320 | 6.61088 | 37863 ft | 418 kts | 219° |
| 2026-05-06 11:43 | 46.61791 | 6.55743 | 37891 ft | 419 kts | 219° |
| 2026-05-06 11:44 | 46.54993 | 6.47744 | 37883 ft | 419 kts | 219° |
| 2026-05-06 11:44 | 46.50447 | 6.42410 | 37895 ft | 423 kts | 219° |
| 2026-05-06 11:45 | 46.45880 | 6.37063 | 37900 ft | 424 kts | 219° |
| 2026-05-06 11:45 | 46.41285 | 6.31694 | 37901 ft | 424 kts | 219° |
| 2026-05-06 11:46 | 46.36683 | 6.26330 | 37907 ft | 424 kts | 219° |
| 2026-05-06 11:46 | 46.32076 | 6.20971 | 37910 ft | 424 kts | 219° |
| 2026-05-06 11:47 | 46.27495 | 6.15676 | 37906 ft | 424 kts | 216° |
| 2026-05-06 11:47 | 46.24924 | 6.13633 | 37893 ft | 423 kts | 200° |
| 2026-05-06 11:47 | 46.22049 | 6.12653 | 37942 ft | 425 kts | 192° |
| 2026-05-06 11:48 | 46.16189 | 6.11205 | 37894 ft | 427 kts | 191° |
| 2026-05-06 11:48 | 46.10291 | 6.09861 | 37916 ft | 428 kts | 191° |
| 2026-05-06 11:49 | 46.04403 | 6.08554 | 37955 ft | 428 kts | 191° |
| 2026-05-06 11:49 | 45.98552 | 6.07258 | 37911 ft | 427 kts | 191° |
| 2026-05-06 11:50 | 45.92639 | 6.05953 | 37930 ft | 427 kts | 191° |
| 2026-05-06 11:50 | 45.86798 | 6.04666 | 37943 ft | 427 kts | 191° |
| 2026-05-06 11:51 | 45.80921 | 6.03366 | 37928 ft | 427 kts | 192° |
| 2026-05-06 11:51 | 45.75042 | 6.02068 | 37940 ft | 427 kts | 191° |
| 2026-05-06 11:52 | 45.69163 | 6.00772 | 37940 ft | 427 kts | 192° |
| 2026-05-06 11:52 | 45.63286 | 5.99480 | 37972 ft | 428 kts | 191° |
| 2026-05-06 11:53 | 45.57407 | 5.98191 | 37984 ft | 427 kts | 192° |
| 2026-05-06 11:53 | 45.51559 | 5.96911 | 37960 ft | 427 kts | 192° |
| 2026-05-06 11:54 | 45.45735 | 5.95338 | 37947 ft | 425 kts | 195° |
| 2026-05-06 11:54 | 45.39950 | 5.93502 | 37962 ft | 426 kts | 195° |
| 2026-05-06 11:55 | 45.34164 | 5.91702 | 37945 ft | 424 kts | 195° |
| 2026-05-06 11:55 | 45.28388 | 5.89910 | 37924 ft | 424 kts | 195° |
| 2026-05-06 11:56 | 45.22609 | 5.88122 | 37928 ft | 425 kts | 195° |
| 2026-05-06 11:56 | 45.16840 | 5.86340 | 37926 ft | 424 kts | 195° |
| 2026-05-06 11:57 | 45.11112 | 5.84574 | 37910 ft | 424 kts | 195° |
| 2026-05-06 11:57 | 45.05343 | 5.82799 | 37920 ft | 424 kts | 195° |
| 2026-05-06 11:58 | 44.99587 | 5.81032 | 37940 ft | 422 kts | 195° |
| 2026-05-06 11:58 | 44.93841 | 5.79272 | 37918 ft | 422 kts | 195° |
| 2026-05-06 11:59 | 44.89070 | 5.77813 | 37927 ft | 422 kts | 195° |
| 2026-05-06 11:59 | 44.83325 | 5.76058 | 37923 ft | 421 kts | 195° |
| 2026-05-06 12:00 | 44.77629 | 5.74325 | 37929 ft | 418 kts | 195° |
| 2026-05-06 12:00 | 44.71937 | 5.72594 | 37915 ft | 418 kts | 195° |
| 2026-05-06 12:01 | 44.66238 | 5.70865 | 37955 ft | 419 kts | 195° |
| 2026-05-06 12:01 | 44.60521 | 5.69134 | 37918 ft | 422 kts | 195° |
| 2026-05-06 12:02 | 44.54808 | 5.67408 | 37920 ft | 422 kts | 195° |
| 2026-05-06 12:02 | 44.49073 | 5.65678 | 37924 ft | 421 kts | 195° |
| 2026-05-06 12:03 | 44.43335 | 5.63951 | 37908 ft | 421 kts | 195° |
| 2026-05-06 12:03 | 44.37640 | 5.62113 | 37923 ft | 417 kts | 203° |
| 2026-05-06 12:04 | 44.32245 | 5.59160 | 37927 ft | 417 kts | 204° |
| 2026-05-06 12:04 | 44.26826 | 5.56218 | 37918 ft | 417 kts | 204° |
| 2026-05-06 12:05 | 44.21434 | 5.53273 | 37905 ft | 415 kts | 204° |
| 2026-05-06 12:05 | 44.16060 | 5.50339 | 37927 ft | 415 kts | 204° |
| 2026-05-06 12:06 | 44.10699 | 5.47421 | 37914 ft | 415 kts | 204° |
| 2026-05-06 12:06 | 44.05323 | 5.44499 | 37911 ft | 414 kts | 204° |
| 2026-05-06 12:07 | 43.99956 | 5.41588 | 37918 ft | 414 kts | 204° |
| 2026-05-06 12:07 | 43.94584 | 5.38677 | 37918 ft | 414 kts | 204° |
| 2026-05-06 12:08 | 43.89224 | 5.35777 | 37896 ft | 414 kts | 204° |
| 2026-05-06 12:08 | 43.83897 | 5.32902 | 37937 ft | 413 kts | 204° |
| 2026-05-06 12:09 | 43.78513 | 5.30000 | 37916 ft | 416 kts | 204° |
| 2026-05-06 12:09 | 43.73114 | 5.27096 | 37912 ft | 416 kts | 204° |
| 2026-05-06 12:10 | 43.67716 | 5.24198 | 37903 ft | 415 kts | 204° |
| 2026-05-06 12:10 | 43.62331 | 5.21313 | 37908 ft | 415 kts | 204° |
| 2026-05-06 12:11 | 43.56943 | 5.18432 | 37938 ft | 415 kts | 204° |
| 2026-05-06 12:11 | 43.51554 | 5.15556 | 37928 ft | 415 kts | 204° |
| 2026-05-06 12:12 | 43.46176 | 5.12691 | 37939 ft | 414 kts | 205° |
| 2026-05-06 12:12 | 43.40796 | 5.09830 | 37935 ft | 414 kts | 205° |
| 2026-05-06 12:13 | 43.38201 | 5.08161 | 37920 ft | 408 kts | 216° |
| 2026-05-06 12:13 | 43.35874 | 5.05932 | 37920 ft | 409 kts | 216° |
| 2026-05-06 12:13 | 43.31176 | 5.01615 | 37935 ft | 410 kts | 217° |
| 2026-05-06 12:14 | 43.26813 | 4.97535 | 37941 ft | 406 kts | 217° |
| 2026-05-06 12:14 | 43.22117 | 4.93126 | 37935 ft | 408 kts | 217° |
| 2026-05-06 12:15 | 43.17845 | 4.89120 | 37933 ft | 409 kts | 217° |
| 2026-05-06 12:15 | 43.13770 | 4.85304 | 37944 ft | 409 kts | 217° |
| 2026-05-06 12:16 | 43.09086 | 4.80926 | 37941 ft | 406 kts | 217° |
| 2026-05-06 12:16 | 43.04312 | 4.76781 | 37949 ft | 407 kts | 211° |
| 2026-05-06 12:17 | 42.99319 | 4.73078 | 37946 ft | 408 kts | 212° |
| 2026-05-06 12:17 | 42.94358 | 4.69326 | 37952 ft | 408 kts | 212° |
| 2026-05-06 12:18 | 42.89405 | 4.65568 | 37950 ft | 407 kts | 212° |
| 2026-05-06 12:18 | 42.84498 | 4.61850 | 37954 ft | 406 kts | 212° |
| 2026-05-06 12:19 | 42.79561 | 4.58116 | 37952 ft | 406 kts | 212° |
| 2026-05-06 12:19 | 42.74602 | 4.54373 | 37956 ft | 408 kts | 212° |
| 2026-05-06 12:20 | 42.69625 | 4.50623 | 37955 ft | 409 kts | 212° |
| 2026-05-06 12:20 | 42.64713 | 4.46928 | 37954 ft | 409 kts | 212° |
| 2026-05-06 12:21 | 42.59749 | 4.43201 | 37960 ft | 409 kts | 212° |
| 2026-05-06 12:21 | 42.54801 | 4.39492 | 37962 ft | 409 kts | 212° |
| 2026-05-06 12:22 | 42.49823 | 4.35769 | 37953 ft | 407 kts | 212° |
| 2026-05-06 12:22 | 42.44864 | 4.32067 | 37957 ft | 407 kts | 212° |
| 2026-05-06 12:23 | 42.39898 | 4.28365 | 37961 ft | 407 kts | 212° |
| 2026-05-06 12:23 | 42.34936 | 4.24674 | 37962 ft | 407 kts | 212° |
| 2026-05-06 12:24 | 42.30015 | 4.21019 | 37959 ft | 406 kts | 212° |